Time;durP1;ratioP1;P1;durP2;ratioP2;P2;SDS_P1;SDS_P2;PMS_P1;PMS_P2;Temp;Humidity;BMP_temperature;BMP_pressure;BME280_temperature;BME280_humidity;BME280_pressure;Samples;Min_cycle;Max_cycle;Signal;HPM_P1;HPM_P2
2023/04/13 00:00:12;;;;;;;0.00;0.00;;;;;;;5.52;90.20;98578.22;6274041;22;20056;-79
2023/04/13 00:02:40;;;;;;;0.00;0.00;;;;;;;5.57;89.65;98592.59;6302073;22;20041;-81
2023/04/13 00:05:10;;;;;;;0.00;0.00;;;;;;;5.45;89.87;98593.97;6269142;22;20034;-81
2023/04/13 00:07:37;;;;;;;0.00;0.00;;;;;;;5.52;89.21;98594.50;6274944;22;20491;-80
2023/04/13 00:10:45;;;;;;;;;;;;;;;;;;;;;
2023/04/13 00:13:10;;;;;;;0.00;0.00;;;;;;;5.35;90.06;98584.00;6296597;22;20380;-78
2023/04/13 00:15:43;;;;;;;0.00;0.00;;;;;;;5.50;89.13;98615.66;6275351;22;20030;-78
2023/04/13 00:18:12;;;;;;;0.00;0.00;;;;;;;5.59;87.80;98635.69;6269422;22;20465;-79
2023/04/13 00:20:42;;;;;;;0.00;0.00;;;;;;;5.45;89.26;98618.38;6248788;22;20133;-79
2023/04/13 00:23:11;;;;;;;0.00;0.00;;;;;;;5.49;89.36;98633.84;6273802;22;20082;-77
2023/04/13 00:25:45;;;;;;;0.00;0.00;;;;;;;5.22;88.83;98590.81;6268738;22;20003;-78
2023/04/13 00:28:10;;;;;;;;;;;;;;;5.52;89.19;98649.56;6248534;22;20007;-78
2023/04/13 00:30:41;;;;;;;0.00;0.00;;;;;;;5.35;89.76;98644.44;6243745;22;19914;-77
2023/04/13 00:34:46;;;;;;;0.00;0.00;;;;;;;5.47;89.15;98637.91;6274184;22;20010;-78
2023/04/13 00:36:49;;;;;;;;;;;;;;;;;;;;;
2023/04/13 00:39:25;;;;;;;0.00;0.00;;;;;;;5.27;89.07;98617.91;6296025;22;20130;-79
2023/04/13 00:42:00;;;;;;;0.00;0.00;;;;;;;5.44;89.72;98628.44;6274631;22;20090;-78
2023/04/13 00:44:27;;;;;;;0.00;0.00;;;;;;;5.61;89.87;98663.34;6267648;22;20003;-77
2023/04/13 00:47:06;;;;;;;0.00;0.00;;;;;;;5.51;88.68;98614.59;6273497;22;20011;-78
2023/04/13 00:49:32;;;;;;;0.00;0.00;;;;;;;5.64;90.12;98649.25;6267838;22;20013;-80
2023/04/13 00:52:01;;;;;;;0.00;0.00;;;;;;;5.52;90.98;98637.88;6273075;22;20007;-77
2023/04/13 00:54:34;;;;;;;0.00;0.00;;;;;;;5.38;91.52;98627.63;6267023;22;20011;-79
2023/04/13 00:57:00;;;;;;;0.00;0.00;;;;;;;5.39;91.91;98656.38;6273526;22;20054;-79
2023/04/13 00:59:29;;;;;;;0.00;0.00;;;;;;;5.37;92.50;98645.00;6269382;22;20425;-77
2023/04/13 01:02:04;;;;;;;0.00;0.00;;;;;;;5.25;92.41;98666.16;6273989;22;20007;-78
2023/04/13 01:04:33;;;;;;;0.00;0.00;;;;;;;5.29;92.90;98647.47;6269437;22;20092;-79
2023/04/13 01:07:22;;;;;;;0.00;0.00;;;;;;;5.35;92.59;98671.56;6274874;22;20032;-79
2023/04/13 01:10:10;;;;;;;0.00;0.00;;;;;;;5.32;92.61;98669.38;6267774;22;20014;-78
2023/04/13 01:12:55;;;;;;;0.00;0.00;;;;;;;5.27;93.12;98664.00;6300221;22;20002;-78
2023/04/13 01:15:22;;;;;;;0.00;0.00;;;;;;;5.23;92.07;98663.72;6268747;22;20548;-79
2023/04/13 01:18:04;;;;;;;0.10;0.10;;;;;;;5.18;91.56;98666.44;6299361;22;20086;-79
2023/04/13 01:20:31;;;;;;;0.00;0.00;;;;;;;5.10;92.10;98641.81;6270390;22;20086;-78
2023/04/13 01:23:01;;;;;;;0.00;0.00;;;;;;;5.07;92.38;98660.22;6276204;22;20008;-79
2023/04/13 01:25:38;;;;;;;0.05;0.05;;;;;;;5.01;91.92;98661.31;6271151;22;20007;-77
2023/04/13 01:28:24;;;;;;;0.00;0.00;;;;;;;5.05;92.15;98661.56;6277168;22;20007;-82
2023/04/13 01:31:00;;;;;;;0.00;0.00;;;;;;;4.99;92.42;98668.88;6296654;22;20011;-79
2023/04/13 01:33:29;;;;;;;0.00;0.00;;;;;;;5.00;93.01;98670.50;6275264;22;20030;-77
2023/04/13 01:35:58;;;;;;;0.00;0.00;;;;;;;4.96;92.14;98669.44;6297572;22;20634;-79
2023/04/13 01:38:24;;;;;;;0.00;0.00;;;;;;;4.95;92.84;98688.66;6303940;22;20483;-79
2023/04/13 01:40:52;;;;;;;0.00;0.00;;;;;;;5.07;93.31;98684.59;6246105;22;20003;-78
2023/04/13 01:43:47;;;;;;;0.00;0.00;;;;;;;4.97;92.31;98686.50;6272747;22;20000;-81
2023/04/13 01:46:25;;;;;;;0.00;0.00;;;;;;;4.67;93.37;98645.63;6292561;22;20003;-80
2023/04/13 01:48:55;;;;;;;0.00;0.00;;;;;;;4.64;94.56;98659.69;6272762;22;19999;-78
2023/04/13 01:51:28;;;;;;;0.00;0.00;;;;;;;4.82;93.38;98680.00;6270548;22;20426;-77
2023/04/13 01:54:31;;;;;;;0.00;0.00;;;;;;;4.96;91.93;98707.34;6303123;22;19999;-75
2023/04/13 01:57:05;;;;;;;0.00;0.00;;;;;;;4.89;91.16;98713.06;6266674;22;20003;-78
2023/04/13 01:59:51;;;;;;;0.07;0.07;;;;;;;4.85;89.32;98695.72;6271301;22;20003;-77
2023/04/13 02:02:16;;;;;;;0.00;0.00;;;;;;;4.90;90.05;98716.56;6280613;22;20687;-78
2023/04/13 02:04:42;;;;;;;0.00;0.00;;;;;;;4.90;89.82;98724.69;6269589;22;20010;-78
2023/04/13 02:07:07;;;;;;;0.00;0.00;;;;;;;4.88;90.52;98727.69;6274799;22;20421;-78
2023/04/13 02:09:36;;;;;;;0.00;0.00;;;;;;;4.87;89.98;98730.66;6246493;22;20480;-76
2023/04/13 02:12:01;;;;;;;0.00;0.00;;;;;;;4.85;90.53;98722.00;6275459;22;20003;-78
2023/04/13 02:14:27;;;;;;;0.00;0.00;;;;;;;4.81;90.47;98720.91;6249173;22;20011;-77
2023/04/13 02:16:53;;;;;;;0.00;0.00;;;;;;;4.86;90.81;98739.84;6268199;22;20496;-80
2023/04/13 02:19:20;;;;;;;0.00;0.00;;;;;;;4.77;91.19;98726.03;6275956;22;20396;-78
2023/04/13 02:21:46;;;;;;;0.00;0.00;;;;;;;4.76;91.33;98729.00;6272740;22;20008;-77
2023/04/13 02:24:13;;;;;;;0.00;0.00;;;;;;;4.74;91.67;98736.59;6269879;22;20038;-78
2023/04/13 02:26:43;;;;;;;0.00;0.00;;;;;;;4.68;91.47;98733.06;6277959;22;20007;-75
2023/04/13 02:29:08;;;;;;;0.10;0.10;;;;;;;4.81;90.31;98743.38;6270344;22;20008;-77
2023/04/13 02:31:34;;;;;;;0.00;0.00;;;;;;;4.78;89.93;98737.69;6249888;22;20014;-77
2023/04/13 02:34:04;;;;;;;0.00;0.00;;;;;;;4.83;90.00;98759.34;6272434;22;20006;-77
2023/04/13 02:36:30;;;;;;;0.00;0.00;;;;;;;4.70;90.12;98726.31;6228359;22;20006;-77
2023/04/13 02:38:59;;;;;;;0.00;0.00;;;;;;;4.81;90.40;98764.25;6245794;22;20019;-77
2023/04/13 02:41:24;;;;;;;0.00;0.00;;;;;;;4.82;89.57;98771.25;6221602;22;20450;-78
2023/04/13 02:43:52;;;;;;;0.00;0.00;;;;;;;4.90;90.29;98765.31;6251984;22;20058;-76
2023/04/13 02:46:17;;;;;;;0.00;0.00;;;;;;;4.93;90.16;98763.97;6270740;22;20014;-78
2023/04/13 02:48:43;;;;;;;0.00;0.00;;;;;;;5.12;89.38;98764.25;6275926;22;20003;-78
2023/04/13 02:51:11;;;;;;;0.00;0.00;;;;;;;5.37;89.35;98783.25;6270246;22;20082;-77
2023/04/13 02:53:38;;;;;;;0.00;0.00;;;;;;;5.40;89.25;98788.13;6273053;22;20064;-81
2023/04/13 02:56:05;;;;;;;0.00;0.00;;;;;;;5.54;88.90;98793.78;6249133;22;20007;-79
2023/04/13 02:58:31;;;;;;;0.00;0.00;;;;;;;5.58;88.64;98789.44;6224184;22;20084;-77
2023/04/13 03:00:57;;;;;;;0.00;0.00;;;;;;;5.64;87.97;98787.53;6276237;22;20420;-78
2023/04/13 03:03:25;;;;;;;0.00;0.00;;;;;;;5.67;88.81;98787.00;6269489;22;20121;-79
2023/04/13 03:06:00;;;;;;;0.00;0.00;;;;;;;5.73;88.04;98802.16;6278188;22;19999;-79
2023/04/13 03:08:28;;;;;;;0.00;0.00;;;;;;;5.77;88.79;98819.53;6271139;22;20003;-78
2023/04/13 03:10:56;;;;;;;0.00;0.00;;;;;;;5.70;88.57;98810.06;6274536;22;20087;-78
2023/04/13 03:13:21;;;;;;;0.08;0.08;;;;;;;5.59;87.77;98803.81;6298530;22;20007;-78
2023/04/13 03:15:47;;;;;;;0.00;0.00;;;;;;;5.41;88.91;98795.16;6248291;22;20307;-79
2023/04/13 03:18:14;;;;;;;0.00;0.00;;;;;;;5.20;88.13;98798.97;6273490;22;20021;-78
2023/04/13 03:20:43;;;;;;;0.00;0.00;;;;;;;5.02;88.59;98793.00;6228376;22;20019;-78
2023/04/13 03:23:11;;;;;;;0.00;0.00;;;;;;;5.00;88.79;98822.22;6225317;22;20014;-78
2023/04/13 03:25:47;;;;;;;0.00;0.00;;;;;;;4.79;89.65;98804.31;6248751;22;20007;-80
2023/04/13 03:28:17;;;;;;;0.00;0.00;;;;;;;4.77;90.20;98811.91;6275601;22;20321;-81
2023/04/13 03:30:53;;;;;;;;;;;;;;;;;;;;;
2023/04/13 03:33:19;;;;;;;0.00;0.00;;;;;;;4.69;88.93;98822.16;6300269;22;20078;-79
2023/04/13 03:35:47;;;;;;;0.00;0.00;;;;;;;4.77;88.74;98834.38;6275833;22;20026;-81
2023/04/13 03:38:14;;;;;;;0.00;0.00;;;;;;;4.70;88.84;98812.97;6275619;22;20023;-81
2023/04/13 03:40:40;;;;;;;0.00;0.00;;;;;;;4.67;88.94;98840.59;6275228;22;20010;-80
2023/04/13 03:43:11;;;;;;;0.00;0.00;;;;;;;4.62;88.78;98835.13;6262888;22;20012;-80
2023/04/13 03:45:37;;;;;;;0.00;0.00;;;;;;;4.68;88.72;98831.34;6259207;22;20011;-81
2023/04/13 03:48:04;;;;;;;0.00;0.00;;;;;;;4.60;88.58;98834.59;6259007;22;20033;-80
2023/04/13 03:50:30;;;;;;;0.00;0.00;;;;;;;4.57;88.35;98829.72;6284301;22;20030;-80
2023/04/13 03:53:23;;;;;;;;;;;;;;;;;;;;;
2023/04/13 03:55:50;;;;;;;0.00;0.00;;;;;;;4.63;87.80;98855.72;6323406;22;19995;-81
2023/04/13 03:58:15;;;;;;;0.00;0.00;;;;;;;4.70;87.42;98867.13;6303038;22;19995;-81
2023/04/13 04:00:43;;;;;;;0.00;0.00;;;;;;;4.48;88.39;98852.94;6246333;22;20033;-80
2023/04/13 04:03:13;;;;;;;0.00;0.00;;;;;;;4.50;87.68;98856.22;6255730;22;20014;-78
2023/04/13 04:05:46;;;;;;;0.00;0.00;;;;;;;4.50;87.89;98856.22;6273492;22;20003;-78
2023/04/13 04:08:11;;;;;;;0.00;0.00;;;;;;;4.38;87.69;98848.31;6279052;22;20026;-80
2023/04/13 04:10:37;;;;;;;0.00;0.00;;;;;;;4.58;87.85;98874.66;6273404;22;19995;-80
2023/04/13 04:13:05;;;;;;;0.00;0.00;;;;;;;4.40;88.06;98861.59;6218376;22;20034;-79
2023/04/13 04:15:50;;;;;;;;;;;;;;;;;;;;;
2023/04/13 04:18:19;;;;;;;0.00;0.00;;;;;;;4.40;88.68;98850.75;6302436;22;20094;-78
2023/04/13 04:20:47;;;;;;;0.00;0.00;;;;;;;4.46;88.93;98864.03;6274368;22;20014;-78
2023/04/13 04:23:14;;;;;;;0.00;0.00;;;;;;;4.59;88.45;98870.88;6245148;22;20008;-80
2023/04/13 04:25:40;;;;;;;0.00;0.00;;;;;;;4.63;87.64;98855.72;6272913;22;20076;-79
2023/04/13 04:28:09;;;;;;;0.00;0.00;;;;;;;4.65;87.34;98864.38;6273698;22;20090;-79
2023/04/13 04:30:38;;;;;;;0.00;0.00;;;;;;;4.59;88.75;98862.75;6299382;22;20329;-79
2023/04/13 04:33:04;;;;;;;0.00;0.00;;;;;;;4.60;88.96;98871.66;6245891;22;20425;-80
2023/04/13 04:35:42;;;;;;;;;;;;;;;;;;;;;
2023/04/13 04:38:08;;;;;;;0.10;0.10;;;;;;;4.64;88.90;98900.66;6273173;22;20110;-81
2023/04/13 04:40:36;;;;;;;0.00;0.00;;;;;;;4.53;90.79;98902.50;6273492;22;20030;-82
2023/04/13 04:43:03;;;;;;;0.00;0.00;;;;;;;4.30;91.92;98882.09;6260236;22;20013;-79
2023/04/13 04:45:31;;;;;;;0.00;0.00;;;;;;;4.19;94.76;98899.34;6246656;22;20007;-80
2023/04/13 04:48:07;;;;;;;;;;;;;;;;;;;;;
2023/04/13 04:50:43;;;;;;;0.00;0.00;;;;;;;3.83;97.11;98897.22;6299948;22;20383;-81
2023/04/13 04:53:13;;;;;;;0.03;0.03;;;;;;;3.69;100.00;98892.50;6227377;22;20026;-80
2023/04/13 04:55:38;;;;;;;0.00;0.00;;;;;;;3.73;99.43;98912.56;6246678;22;20011;-81
2023/04/13 04:58:24;;;;;;;0.00;0.00;;;;;;;3.55;100.00;98887.53;6227604;22;20049;-81
2023/04/13 05:00:52;;;;;;;0.00;0.00;;;;;;;3.44;100.00;98883.09;6274868;22;20018;-81
2023/04/13 05:03:19;;;;;;;0.00;0.00;;;;;;;3.52;100.00;98906.97;6278329;22;20007;-80
2023/04/13 05:05:45;;;;;;;0.00;0.00;;;;;;;3.39;100.00;98899.25;6273654;22;20049;-80
2023/04/13 05:08:10;;;;;;;0.00;0.00;;;;;;;3.35;100.00;98914.38;6226100;22;20007;-79
2023/04/13 05:10:45;;;;;;;0.00;0.00;;;;;;;3.26;100.00;98906.72;6246414;22;20374;-81
2023/04/13 05:13:38;;;;;;;0.00;0.00;;;;;;;3.30;100.00;98909.72;6276991;22;20372;-80
2023/04/13 05:16:04;;;;;;;0.00;0.00;;;;;;;3.26;100.00;98914.81;6250268;22;20709;-80
2023/04/13 05:18:31;;;;;;;0.00;0.00;;;;;;;3.31;100.00;98933.81;6275997;22;20094;-80
2023/04/13 05:20:57;;;;;;;0.00;0.00;;;;;;;3.34;100.00;98937.06;6221362;22;20050;-80
2023/04/13 05:23:23;;;;;;;0.00;0.00;;;;;;;3.17;100.00;98916.38;6304916;22;19999;-80
2023/04/13 05:25:51;;;;;;;0.10;0.10;;;;;;;3.19;100.00;98930.44;6221547;22;20007;-80
2023/04/13 05:28:17;;;;;;;0.08;0.08;;;;;;;3.05;100.00;98902.19;6273675;22;20039;-80
2023/04/13 05:30:43;;;;;;;0.00;0.00;;;;;;;3.27;100.00;98951.59;6277026;22;20010;-81
2023/04/13 05:33:09;;;;;;;0.00;0.00;;;;;;;3.28;100.00;98945.09;6247715;22;20108;-80
2023/04/13 05:35:45;;;;;;;0.10;0.10;;;;;;;3.13;100.00;98915.25;6251127;22;20003;-81
2023/04/13 05:38:11;;;;;;;0.00;0.00;;;;;;;3.17;100.00;98916.38;6299607;22;20022;-79
2023/04/13 05:40:36;;;;;;;0.00;0.00;;;;;;;3.21;100.00;98916.66;6302724;22;20003;-78
2023/04/13 05:43:04;;;;;;;0.00;0.00;;;;;;;3.23;100.00;98911.84;6277008;22;20079;-78
2023/04/13 05:45:34;;;;;;;0.00;0.00;;;;;;;3.22;100.00;98913.69;6270942;22;20090;-78
2023/04/13 05:48:00;;;;;;;0.00;0.00;;;;;;;3.25;100.00;98929.41;6277556;22;19995;-77
2023/04/13 05:50:27;;;;;;;0.00;0.00;;;;;;;3.38;100.00;98940.88;6271799;22;20022;-78
2023/04/13 05:52:52;;;;;;;0.10;0.10;;;;;;;3.30;100.00;98932.16;6275134;22;20018;-79
2023/04/13 05:55:19;;;;;;;0.00;0.00;;;;;;;3.40;100.00;98946.84;6222082;22;20003;-79
2023/04/13 05:57:44;;;;;;;0.00;0.00;;;;;;;3.42;100.00;98950.13;6250758;22;20014;-81
2023/04/13 06:00:10;;;;;;;0.00;0.00;;;;;;;3.44;100.00;98945.28;6222370;22;20007;-78
2023/04/13 06:02:43;;;;;;;0.00;0.00;;;;;;;3.44;100.00;98937.97;6246820;22;20462;-78
2023/04/13 06:05:10;;;;;;;0.08;0.08;;;;;;;3.41;100.00;98927.66;6252319;22;20015;-80
2023/04/13 06:07:35;;;;;;;0.00;0.00;;;;;;;3.60;100.00;98957.03;6245294;22;20456;-82
2023/04/13 06:10:01;;;;;;;0.00;0.00;;;;;;;3.58;100.00;98943.78;6276396;22;20026;-80
2023/04/13 06:12:27;;;;;;;0.00;0.00;;;;;;;3.60;100.00;98943.53;6273680;22;19991;-83
2023/04/13 06:14:53;;;;;;;0.00;0.00;;;;;;;3.75;100.00;98953.66;6276388;22;20026;-81
2023/04/13 06:17:18;;;;;;;0.00;0.00;;;;;;;3.69;100.00;98939.28;6299876;22;20003;-80
2023/04/13 06:19:44;;;;;;;0.00;0.00;;;;;;;3.81;100.00;98952.63;6249088;22;20016;-81
2023/04/13 06:22:09;;;;;;;0.00;0.00;;;;;;;3.89;100.00;98968.38;6227764;22;20003;-80
2023/04/13 06:24:37;;;;;;;0.10;0.10;;;;;;;3.99;100.00;98976.59;6246466;22;20007;-80
2023/04/13 06:27:21;;;;;;;0.03;0.03;;;;;;;4.06;100.00;98980.97;6275872;22;20029;-81
2023/04/13 06:29:46;;;;;;;0.00;0.00;;;;;;;3.98;100.00;98952.50;6247973;22;20026;-81
2023/04/13 06:32:15;;;;;;;0.00;0.00;;;;;;;4.22;100.00;98985.44;6275725;22;19995;-82
2023/04/13 06:35:18;;;;;;;0.00;0.00;;;;;;;4.27;100.00;98979.22;6274279;22;20003;-80
2023/04/13 06:37:57;;;;;;;0.00;0.00;;;;;;;4.29;100.00;98974.38;6261657;22;20109;-81
2023/04/13 06:40:33;;;;;;;0.00;0.00;;;;;;;4.34;100.00;98977.94;6271847;22;20019;-83
2023/04/13 06:42:59;;;;;;;0.03;0.03;;;;;;;4.37;100.00;98973.88;6252015;22;20007;-81
2023/04/13 06:45:24;;;;;;;0.00;0.00;;;;;;;4.37;99.31;98965.78;6271931;22;20030;-79
2023/04/13 06:47:57;;;;;;;0.00;0.00;;;;;;;4.46;99.23;98976.94;6274540;22;20003;-79
2023/04/13 06:50:33;;;;;;;0.00;0.00;;;;;;;4.70;98.72;99002.53;6246133;22;20440;-77
2023/04/13 06:52:58;;;;;;;0.00;0.00;;;;;;;4.63;98.86;98982.16;6276255;22;20033;-78
2023/04/13 06:55:24;;;;;;;0.00;0.00;;;;;;;4.71;98.61;98993.31;6246007;22;20007;-78
2023/04/13 06:57:57;;;;;;;0.00;0.00;;;;;;;4.78;99.69;98994.97;6226931;22;20034;-81
2023/04/13 07:00:26;;;;;;;0.00;0.00;;;;;;;4.78;98.47;98981.44;6270936;22;20007;-79
2023/04/13 07:02:57;;;;;;;0.00;0.00;;;;;;;4.88;98.42;98984.19;6224425;22;20011;-81
2023/04/13 07:05:25;;;;;;;0.03;0.03;;;;;;;5.02;98.80;99004.31;6249059;22;20011;-80
2023/04/13 07:07:51;;;;;;;0.00;0.00;;;;;;;5.03;98.20;99002.41;6253373;22;20014;-79
2023/04/13 07:10:16;;;;;;;0.00;0.00;;;;;;;4.98;97.46;98983.41;6252779;22;20007;-79
2023/04/13 07:12:55;;;;;;;;;;;;;;;;;;;;;
2023/04/13 07:15:21;;;;;;;0.00;0.00;;;;;;;5.31;97.15;99005.78;6297901;22;20087;-80
2023/04/13 07:17:46;;;;;;;0.00;0.00;;;;;;;5.44;97.68;99020.72;6223680;22;20034;-78
2023/04/13 07:20:12;;;;;;;0.00;0.00;;;;;;;5.54;97.33;99021.56;6253110;22;20011;-79
2023/04/13 07:22:40;;;;;;;0.00;0.00;;;;;;;5.67;97.16;99025.66;6247341;22;20019;-80
2023/04/13 07:25:06;;;;;;;0.00;0.00;;;;;;;5.65;98.04;99014.28;6275248;22;20007;-79
2023/04/13 07:27:40;;;;;;;0.00;0.00;;;;;;;5.79;97.90;99027.31;6279123;22;20011;-80
2023/04/13 07:30:07;;;;;;;;;;;;;;;5.86;97.38;99046.88;6272928;22;20034;-79
2023/04/13 07:32:32;;;;;;;0.00;0.00;;;;;;;5.79;97.15;99028.13;6252759;22;20550;-79
2023/04/13 07:35:00;;;;;;;0.00;0.00;;;;;;;5.86;96.93;99034.13;6217941;22;20102;-78
2023/04/13 07:37:26;;;;;;;0.00;0.00;;;;;;;6.02;97.18;99043.13;6247660;22;20458;-79
2023/04/13 07:39:54;;;;;;;0.00;0.00;;;;;;;6.00;96.34;99022.75;6270439;22;20039;-79
2023/04/13 07:42:19;;;;;;;0.00;0.00;;;;;;;6.10;96.28;99039.88;6271753;22;20003;-78
2023/04/13 07:44:45;;;;;;;0.00;0.00;;;;;;;6.09;96.39;99027.38;6273515;22;20056;-78
2023/04/13 07:47:17;;;;;;;0.00;0.00;;;;;;;6.28;96.82;99043.16;6273784;22;20035;-79
2023/04/13 07:49:45;;;;;;;0.00;0.00;;;;;;;6.35;96.09;99040.97;6275547;22;20349;-80
2023/04/13 07:52:14;;;;;;;0.00;0.00;;;;;;;6.41;96.34;99049.91;6263955;22;20007;-79
2023/04/13 07:54:42;;;;;;;0.00;0.00;;;;;;;6.40;96.65;99051.81;6251228;22;20106;-80
2023/04/13 07:57:19;;;;;;;;;;;;;;;;;;;;;
2023/04/13 07:59:48;;;;;;;0.00;0.00;;;;;;;6.63;96.51;99042.31;6276492;22;20078;-80
2023/04/13 08:02:15;;;;;;;0.00;0.00;;;;;;;6.84;95.51;99055.06;6271186;22;20084;-80
2023/04/13 08:04:41;;;;;;;0.00;0.00;;;;;;;7.09;96.59;99057.69;6275377;22;20400;-79
2023/04/13 08:07:07;;;;;;;0.00;0.00;;;;;;;7.36;96.58;99070.13;6246179;22;20442;-78
2023/04/13 08:09:38;;;;;;;0.00;0.00;;;;;;;7.81;97.48;99071.00;6301593;22;20405;-80
2023/04/13 08:12:03;;;;;;;0.00;0.00;;;;;;;8.20;94.43;99061.22;6296925;22;20064;-81
2023/04/13 08:14:29;;;;;;;0.00;0.00;;;;;;;8.37;92.75;99067.06;6274490;22;20433;-78
2023/04/13 08:16:55;;;;;;;0.00;0.00;;;;;;;8.36;93.99;99051.03;6250746;22;20037;-79
2023/04/13 08:19:22;;;;;;;0.00;0.00;;;;;;;8.48;91.30;99086.09;6219729;22;20072;-78
2023/04/13 08:21:49;;;;;;;0.00;0.00;;;;;;;8.43;91.34;99076.03;6303673;22;19999;-77
2023/04/13 08:24:14;;;;;;;0.00;0.00;;;;;;;9.41;92.24;99077.81;6254733;22;20933;-87
2023/04/13 08:26:40;;;;;;;0.00;0.00;;;;;;;10.65;86.65;99082.38;6238275;22;20075;-87
2023/04/13 08:29:09;;;;;;;0.00;0.00;;;;;;;12.21;78.11;99088.06;6225805;22;20084;-77
2023/04/13 08:31:37;;;;;;;0.00;0.00;;;;;;;12.58;75.18;99099.78;6275324;22;20056;-78
2023/04/13 08:34:12;;;;;;;;;;;;;;;;;;;;;
2023/04/13 08:36:38;;;;;;;0.00;0.00;;;;;;;14.85;69.22;99093.31;6300574;22;20110;-76
2023/04/13 08:39:07;;;;;;;0.03;0.03;;;;;;;15.43;61.51;99082.72;6274260;22;20074;-79
2023/04/13 08:41:40;;;;;;;0.00;0.00;;;;;;;15.90;65.05;99094.84;6273109;22;20010;-77
2023/04/13 08:45:19;;;;;;;0.00;0.00;;;;;;;16.82;63.36;99118.78;6275551;22;20011;-78
2023/04/13 08:51:25;;;;;;;0.00;0.00;;;;;;;16.00;63.18;99113.75;6087607;23;20184;-82
2023/04/13 08:54:43;;;;;;;0.00;0.00;;;;;;;17.49;60.63;99109.63;6070868;23;20010;-81
2023/04/13 08:57:23;;;;;;;0.00;0.00;;;;;;;17.67;58.00;99124.84;6007859;23;20188;-78
2023/04/13 08:59:51;;;;;;;0.00;0.00;;;;;;;17.06;62.96;99136.59;6088145;23;20085;-82
2023/04/13 10:39:33;;;;;;;;;;;;;;;;;;;;;
2023/04/13 11:39:50;;;;;;;0.00;0.00;;;;;;;31.78;44.36;99162.09;5806322;22;10905618;-79
2023/04/13 11:42:15;;;;;;;0.00;0.00;;;;;;;31.89;41.49;99155.38;6229286;22;20019;-81
2023/04/13 11:44:44;;;;;;;0.00;0.00;;;;;;;32.06;40.74;99162.59;6227918;22;20011;-80
2023/04/13 11:47:14;;;;;;;0.00;0.00;;;;;;;32.44;43.07;99149.91;6253334;22;20418;-82
2023/04/13 11:49:47;;;;;;;0.00;0.00;;;;;;;32.46;39.36;99141.75;6254028;22;20003;-81
2023/04/13 11:52:44;;;;;;;0.00;0.00;;;;;;;33.90;43.46;99155.16;6251082;22;20003;-80
2023/04/13 11:55:19;;;;;;;0.00;0.00;;;;;;;34.96;37.96;99133.94;6249811;22;20007;-79
2023/04/13 11:57:47;;;;;;;0.00;0.00;;;;;;;34.28;39.64;99119.44;6250975;22;20010;-78
2023/04/13 12:00:17;;;;;;;0.00;0.00;;;;;;;34.05;44.00;99152.66;6249177;22;20003;-79
2023/04/13 12:02:43;;;;;;;0.00;0.00;;;;;;;34.57;44.37;99143.94;6230534;22;20332;-79
2023/04/13 12:05:57;;;;;;;;;;;;;;;;;;;;;
2023/04/13 12:08:23;;;;;;;0.00;0.00;;;;;;;35.91;38.29;99151.69;6282652;22;20388;-79
2023/04/13 12:11:03;;;;;;;0.00;0.00;;;;;;;34.34;36.15;99170.72;6201816;22;20023;-79
2023/04/13 12:14:05;;;;;;;0.00;0.00;;;;;;;33.85;35.70;99164.25;6252650;22;20030;-82
2023/04/13 12:16:32;;;;;;;0.00;0.00;;;;;;;32.23;31.99;99169.06;6257377;22;20448;-80
2023/04/13 12:19:07;;;;;;;0.00;0.00;;;;;;;31.68;32.19;99163.16;6225687;22;20438;-79
2023/04/13 12:21:32;;;;;;;0.00;0.00;;;;;;;31.80;37.52;99170.13;6249641;22;20334;-79
2023/04/13 12:24:00;;;;;;;0.00;0.00;;;;;;;31.97;33.50;99168.09;6247990;22;20007;-80
2023/04/13 12:26:36;;;;;;;0.00;0.00;;;;;;;30.83;34.55;99166.66;6246950;22;20095;-81
2023/04/13 12:29:04;;;;;;;0.00;0.00;;;;;;;31.32;36.86;99164.78;6243997;22;20031;-80
2023/04/13 12:31:34;;;;;;;0.00;0.00;;;;;;;32.17;36.61;99165.19;6215995;22;20015;-79
2023/04/13 12:34:02;;;;;;;0.00;0.00;;;;;;;32.86;41.05;99141.44;6222111;22;20063;-83
2023/04/13 12:36:30;;;;;;;0.00;0.00;;;;;;;34.25;33.64;99152.34;6217674;22;20007;-81
2023/04/13 12:39:01;;;;;;;0.00;0.00;;;;;;;34.12;36.42;99148.75;6221023;22;20106;-82
2023/04/13 12:41:26;;;;;;;0.00;0.00;;;;;;;33.16;36.83;99148.63;6244132;22;20000;-81
2023/04/13 12:43:55;;;;;;;0.00;0.00;;;;;;;31.01;35.42;99140.91;6218949;22;20311;-80
2023/04/13 12:46:21;;;;;;;0.00;0.00;;;;;;;31.71;40.32;99144.53;6246793;22;20049;-80
2023/04/13 12:48:46;;;;;;;0.00;0.00;;;;;;;33.12;33.91;99142.28;6191585;22;20271;-79
2023/04/13 12:51:35;;;;;;;0.00;0.00;;;;;;;34.02;30.59;99139.38;6246087;22;20438;-79
2023/04/13 12:54:10;;;;;;;0.00;0.00;;;;;;;34.91;40.86;99140.22;6241632;22;20007;-79
2023/04/13 12:56:37;;;;;;;0.00;0.00;;;;;;;35.48;32.82;99148.56;6222450;22;20004;-81
2023/04/13 12:59:03;;;;;;;0.00;0.00;;;;;;;36.21;30.60;99146.34;6243874;22;20418;-79
2023/04/13 13:01:38;;;;;;;0.00;0.00;;;;;;;35.78;32.00;99151.00;6219043;22;20058;-78
2023/04/13 13:04:06;;;;;;;0.00;0.00;;;;;;;34.61;29.77;99134.03;6243837;22;19999;-79
2023/04/13 13:06:39;;;;;;;0.00;0.00;;;;;;;33.80;34.81;99156.31;6245342;22;20509;-79
2023/04/13 13:09:28;;;;;;;0.00;0.00;;;;;;;34.83;36.46;99153.13;6216026;22;20007;-79
2023/04/13 13:12:06;;;;;;;0.00;0.00;;;;;;;32.20;33.10;99169.94;6246188;22;20387;-80
2023/04/13 13:14:34;;;;;;;0.00;0.00;;;;;;;30.85;36.65;99158.53;6197730;22;20008;-77
2023/04/13 13:17:20;;;;;;;0.00;0.00;;;;;;;27.49;36.04;99151.09;6220485;22;20027;-78
2023/04/13 13:19:45;;;;;;;0.00;0.00;;;;;;;26.68;39.91;99165.13;6250606;22;20039;-78
2023/04/13 13:22:16;;;;;;;0.00;0.00;;;;;;;27.95;42.94;99133.06;6273993;22;20011;-81
2023/04/13 13:24:41;;;;;;;0.00;0.00;;;;;;;30.44;39.39;99143.66;6222389;22;20007;-78
2023/04/13 13:27:07;;;;;;;0.00;0.00;;;;;;;28.08;34.37;99146.59;6249315;22;20011;-78
2023/04/13 13:29:35;;;;;;;0.00;0.00;;;;;;;24.01;39.74;99142.22;6245708;22;20018;-81
2023/04/13 13:32:59;;;;;;;0.00;0.00;;;;;;;22.86;44.49;99114.03;6218367;22;20007;-79
2023/04/13 13:35:55;;;;;;;0.00;0.00;;;;;;;23.26;44.51;99153.50;6142219;23;20001;-79
2023/04/13 13:49:11;;;;;;;0.00;0.00;;;;;;;31.93;36.07;99127.81;6177850;23;20092;-81
2023/04/13 13:51:39;;;;;;;0.00;0.00;;;;;;;32.66;40.70;99135.94;6150405;23;20558;-82
2023/04/13 13:54:04;;;;;;;0.00;0.00;;;;;;;33.47;38.32;99153.75;6180920;23;20451;-83
2023/04/13 13:56:30;;;;;;;0.00;0.00;;;;;;;32.78;38.60;99160.66;6173733;23;20012;-79
2023/04/13 13:58:56;;;;;;;0.00;0.00;;;;;;;33.57;31.47;99166.78;6188305;23;20571;-79
2023/04/13 14:01:24;;;;;;;0.00;0.00;;;;;;;34.02;36.28;99169.78;6166557;23;20023;-79
2023/04/13 14:04:13;;;;;;;0.00;0.00;;;;;;;29.80;37.77;99148.38;6213075;23;20096;-81
2023/04/13 14:06:38;;;;;;;0.00;0.00;;;;;;;26.46;36.72;99176.38;6217568;23;20008;-82
2023/04/13 14:09:07;;;;;;;0.00;0.00;;;;;;;22.74;36.72;99151.31;6217027;23;20011;-81
2023/04/13 14:11:41;;;;;;;0.00;0.00;;;;;;;20.09;38.85;99137.06;6215924;23;20012;-80
2023/04/13 14:14:16;;;;;;;0.00;0.00;;;;;;;18.15;43.35;99155.59;6191284;23;20046;-80
2023/04/13 14:16:49;;;;;;;0.00;0.00;;;;;;;15.77;57.89;99176.59;6216160;23;20007;-80
2023/04/13 14:19:16;;;;;;;0.00;0.00;;;;;;;13.64;65.80;99175.31;6212831;23;20066;-77
2023/04/13 14:21:42;;;;;;;0.00;0.00;;;;;;;12.61;73.13;99166.09;6213506;23;20692;-79
2023/04/13 14:24:10;;;;;;;0.00;0.00;;;;;;;12.48;77.87;99168.56;6188106;23;20011;-77
2023/04/13 14:26:38;;;;;;;0.00;0.00;;;;;;;12.38;80.22;99166.88;6166478;23;20008;-78
2023/04/13 14:29:04;;;;;;;0.00;0.00;;;;;;;12.04;79.60;99153.66;6191857;23;20006;-80
2023/04/13 14:31:29;;;;;;;0.00;0.00;;;;;;;11.65;78.11;99177.69;6187850;23;20004;-77
2023/04/13 14:33:55;;;;;;;0.00;0.00;;;;;;;11.27;74.22;99160.59;6190862;23;20011;-78
2023/04/13 14:36:23;;;;;;;0.00;0.00;;;;;;;15.30;75.43;99166.38;6216675;23;20076;-79
2023/04/13 14:38:58;;;;;;;0.00;0.00;;;;;;;20.73;69.08;99177.38;6192267;23;20095;-82
2023/04/13 14:41:27;;;;;;;0.00;0.00;;;;;;;23.78;52.73;99189.84;6216596;23;20055;-79
2023/04/13 14:44:41;;;;;;;0.00;0.00;;;;;;;26.99;52.56;99203.44;6217951;23;20000;-83
2023/04/13 14:47:14;;;;;;;0.00;0.00;;;;;;;29.87;45.30;99170.84;6246291;22;20011;-80
2023/04/13 14:49:43;;;;;;;0.00;0.00;;;;;;;31.13;36.80;99203.13;6267505;22;20063;-78
2023/04/13 14:52:16;;;;;;;0.00;0.00;;;;;;;29.29;29.64;99193.44;6269741;22;20011;-80
2023/04/13 14:54:42;;;;;;;0.00;0.00;;;;;;;28.28;37.34;99188.97;6268505;22;19998;-81
2023/04/13 14:57:08;;;;;;;0.00;0.00;;;;;;;26.10;34.72;99177.25;6234434;22;20011;-85
2023/04/13 14:59:33;;;;;;;0.00;0.00;;;;;;;21.97;40.35;99178.44;6220029;23;20015;-86
2023/04/13 15:01:59;;;;;;;0.00;0.00;;;;;;;19.28;43.80;99150.13;6189389;22;20004;-82